Time;durP1;ratioP1;P1;durP2;ratioP2;P2;SDS_P1;SDS_P2;PMS_P1;PMS_P2;Temp;Humidity;BMP_temperature;BMP_pressure;BME280_temperature;BME280_humidity;BME280_pressure;Samples;Min_cycle;Max_cycle;Signal;HPM_P1;HPM_P2
2021/04/18 00:02:14;;;;;;;11.53;9.03;;;;;;;;;;5051246;28;20607;-74
2021/04/18 00:05:22;;;;;;;11.63;9.23;;;;;;;;;;5037380;28;20650;-74
2021/04/18 00:08:26;;;;;;;10.67;8.63;;;;;;;;;;5037825;28;20591;-74
2021/04/18 00:11:31;;;;;;;11.70;8.47;;;;;;;;;;5045147;28;20586;-74
2021/04/18 00:14:35;;;;;;;11.70;9.23;;;;;;;;;;5053415;28;20979;-74
2021/04/18 00:17:39;;;;;;;10.33;8.57;;;;;;;;;;5026112;28;20588;-73
2021/04/18 00:20:43;;;;;;;10.70;8.87;;;;;;;;;;5051961;28;20627;-74
2021/04/18 00:23:47;;;;;;;11.80;9.50;;;;;;;;;;5056689;28;20224;-74
2021/04/18 00:26:51;;;;;;;11.23;9.37;;;;;;;;;;5035063;28;20590;-74
2021/04/18 00:29:56;;;;;;;10.93;8.97;;;;;;;;;;5056757;28;20535;-74
2021/04/18 00:33:00;;;;;;;12.77;8.70;;;;;;;;;;5029289;28;20591;-73
2021/04/18 00:36:06;;;;;;;11.07;8.90;;;;;;;;;;5047471;28;20587;-74
2021/04/18 00:39:10;;;;;;;11.90;9.13;;;;;;;;;;5042668;28;20607;-74
2021/04/18 00:42:15;;;;;;;12.17;9.27;;;;;;;;;;5036708;28;20619;-74
2021/04/18 00:45:20;;;;;;;11.10;8.73;;;;;;;;;;5013716;28;20622;-74
2021/04/18 00:48:24;;;;;;;11.30;9.00;;;;;;;;;;5024430;28;20201;-74
2021/04/18 00:51:28;;;;;;;12.93;9.83;;;;;;;;;;5037033;28;20596;-73
2021/04/18 00:54:32;;;;;;;12.27;8.67;;;;;;;;;;5040725;28;20228;-73
2021/04/18 00:57:37;;;;;;;12.27;9.37;;;;;;;;;;5041941;28;20598;-74
2021/04/18 01:00:41;;;;;;;11.83;9.20;;;;;;;;;;5041092;28;20627;-74
2021/04/18 01:03:47;;;;;;;10.67;8.63;;;;;;;;;;5042426;28;20653;-74
2021/04/18 01:06:52;;;;;;;11.83;9.53;;;;;;;;;;5034703;28;20571;-74
2021/04/18 01:09:58;;;;;;;11.90;9.40;;;;;;;;;;5036079;28;20592;-74
2021/04/18 01:13:02;;;;;;;10.87;8.87;;;;;;;;;;5035353;28;20560;-73
2021/04/18 01:16:07;;;;;;;12.00;9.07;;;;;;;;;;5044640;28;20591;-74
2021/04/18 01:19:12;;;;;;;10.77;8.57;;;;;;;;;;5038751;28;20595;-74
2021/04/18 01:22:17;;;;;;;11.40;8.70;;;;;;;;;;5022839;28;21138;-74
2021/04/18 01:25:42;;;;;;;11.70;8.70;;;;;;;;;;5037602;28;20651;-74
2021/04/18 01:28:53;;;;;;;13.97;9.20;;;;;;;;;;5044349;28;20587;-74
2021/04/18 01:31:57;;;;;;;12.83;9.80;;;;;;;;;;5025389;28;20943;-74
2021/04/18 01:35:01;;;;;;;12.73;9.10;;;;;;;;;;5034751;28;20966;-74
2021/04/18 01:38:09;;;;;;;12.70;9.37;;;;;;;;;;5035071;28;20544;-74
2021/04/18 01:41:14;;;;;;;11.40;9.13;;;;;;;;;;5044053;28;20614;-74
2021/04/18 01:44:18;;;;;;;11.50;8.83;;;;;;;;;;5022345;28;20619;-74
2021/04/18 01:47:23;;;;;;;9.43;8.27;;;;;;;;;;5032896;28;20600;-74
2021/04/18 01:50:27;;;;;;;10.93;9.07;;;;;;;;;;5050951;28;20611;-74
2021/04/18 01:53:31;;;;;;;10.53;8.67;;;;;;;;;;5042808;28;20567;-73
2021/04/18 01:56:36;;;;;;;10.43;8.53;;;;;;;;;;5041923;28;20572;-74
2021/04/18 01:59:42;;;;;;;12.03;8.63;;;;;;;;;;5011088;28;20536;-74
2021/04/18 02:03:00;;;;;;;13.60;10.13;;;;;;;;;;5024316;28;20891;-74
2021/04/18 02:06:14;;;;;;;13.43;9.97;;;;;;;;;;5022036;28;20595;-74
2021/04/18 02:09:30;;;;;;;12.60;9.50;;;;;;;;;;5024429;28;20623;-74
2021/04/18 02:12:35;;;;;;;14.77;10.20;;;;;;;;;;5034062;28;20591;-74
2021/04/18 02:15:39;;;;;;;12.27;9.67;;;;;;;;;;5021950;28;20611;-74
2021/04/18 02:18:44;;;;;;;12.80;9.37;;;;;;;;;;5054060;28;20532;-73
2021/04/18 02:21:49;;;;;;;13.93;9.90;;;;;;;;;;5039988;28;20970;-73
2021/04/18 02:24:54;;;;;;;14.33;10.43;;;;;;;;;;5036849;28;21006;-74
2021/04/18 02:27:59;;;;;;;14.60;11.10;;;;;;;;;;5037436;28;20592;-74
2021/04/18 02:31:12;;;;;;;13.90;10.67;;;;;;;;;;5041538;28;20587;-74
2021/04/18 02:34:19;;;;;;;11.90;9.40;;;;;;;;;;5029327;28;20634;-73
2021/04/18 02:37:24;;;;;;;14.57;10.67;;;;;;;;;;5035959;28;20591;-73
2021/04/18 02:40:29;;;;;;;14.63;10.97;;;;;;;;;;5035927;28;20627;-74
2021/04/18 02:43:34;;;;;;;13.33;10.73;;;;;;;;;;5012511;28;20591;-73
2021/04/18 02:46:39;;;;;;;14.63;10.27;;;;;;;;;;5021282;28;20619;-74
2021/04/18 02:49:44;;;;;;;15.43;11.13;;;;;;;;;;5036644;28;20634;-74
2021/04/18 02:52:48;;;;;;;13.60;10.43;;;;;;;;;;5053555;28;20535;-74
2021/04/18 02:55:53;;;;;;;15.83;11.73;;;;;;;;;;5010083;28;20955;-74
2021/04/18 02:59:10;;;;;;;14.27;10.80;;;;;;;;;;5011624;28;20587;-73
2021/04/18 03:02:16;;;;;;;15.23;10.87;;;;;;;;;;5049992;28;20610;-73
2021/04/18 03:05:24;;;;;;;14.33;10.50;;;;;;;;;;5040502;28;21184;-74
2021/04/18 03:08:37;;;;;;;15.77;11.50;;;;;;;;;;5021351;28;20540;-74
2021/04/18 03:11:43;;;;;;;16.07;10.80;;;;;;;;;;5031749;28;20582;-73
2021/04/18 03:15:00;;;;;;;16.07;11.00;;;;;;;;;;5031727;28;20639;-74
2021/04/18 03:18:05;;;;;;;15.47;11.57;;;;;;;;;;5022862;28;20556;-73
2021/04/18 03:21:11;;;;;;;15.63;10.90;;;;;;;;;;5044428;28;20620;-73
2021/04/18 03:24:16;;;;;;;14.33;10.53;;;;;;;;;;5022592;28;20639;-73
2021/04/18 03:27:21;;;;;;;14.07;11.20;;;;;;;;;;5033005;28;20595;-74
2021/04/18 03:30:32;;;;;;;15.30;11.20;;;;;;;;;;5033782;28;20584;-74
2021/04/18 03:33:38;;;;;;;13.57;10.70;;;;;;;;;;5025789;28;21184;-74
2021/04/18 03:36:45;;;;;;;14.07;11.40;;;;;;;;;;5032873;28;20579;-74
2021/04/18 03:39:53;;;;;;;14.93;11.30;;;;;;;;;;5042192;28;20583;-74
2021/04/18 03:42:58;;;;;;;16.70;12.33;;;;;;;;;;5056495;28;20962;-74
2021/04/18 03:46:03;;;;;;;16.80;11.73;;;;;;;;;;5042100;28;20595;-74
2021/04/18 03:49:18;;;;;;;16.77;11.87;;;;;;;;;;5024471;28;20641;-73
2021/04/18 03:52:25;;;;;;;16.53;12.23;;;;;;;;;;5044994;23;20691;-69
2021/04/18 03:55:29;;;;;;;18.33;12.50;;;;;;;;;;5035731;28;21192;-70
2021/04/18 03:58:36;;;;;;;17.67;13.03;;;;;;;;;;5033993;28;20587;-70
2021/04/18 04:01:45;;;;;;;18.70;12.77;;;;;;;;;;5001115;28;20635;-69
2021/04/18 04:04:54;;;;;;;15.83;12.83;;;;;;;;;;5018216;28;20656;-69
2021/04/18 04:08:00;;;;;;;16.43;12.37;;;;;;;;;;4996081;28;20625;-70
2021/04/18 04:11:05;;;;;;;17.47;12.83;;;;;;;;;;5013864;28;20932;-69
2021/04/18 04:14:13;;;;;;;15.77;11.63;;;;;;;;;;5003352;28;20651;-69
2021/04/18 04:17:25;;;;;;;16.63;13.00;;;;;;;;;;5007361;28;20592;-70
2021/04/18 04:21:05;;;;;;;16.80;13.10;;;;;;;;;;4996993;28;20585;-71
2021/04/18 04:24:31;;;;;;;17.13;12.33;;;;;;;;;;5034543;28;20990;-69
2021/04/18 04:27:36;;;;;;;18.60;13.33;;;;;;;;;;5015149;28;20584;-69
2021/04/18 04:30:40;;;;;;;18.17;12.77;;;;;;;;;;5010174;28;20602;-70
2021/04/18 04:33:45;;;;;;;17.80;12.63;;;;;;;;;;5017232;28;20584;-69
2021/04/18 04:36:49;;;;;;;18.13;13.10;;;;;;;;;;5016097;28;20540;-70
2021/04/18 04:39:53;;;;;;;17.23;13.23;;;;;;;;;;5005008;28;20645;-69
2021/04/18 04:42:57;;;;;;;18.40;13.87;;;;;;;;;;5016307;28;20604;-69
2021/04/18 04:46:02;;;;;;;20.80;14.40;;;;;;;;;;5016230;28;20549;-70
2021/04/18 04:49:06;;;;;;;18.97;13.60;;;;;;;;;;5005005;28;20588;-69
2021/04/18 04:52:10;;;;;;;17.80;13.27;;;;;;;;;;5003613;28;20944;-70
2021/04/18 04:55:15;;;;;;;17.87;13.17;;;;;;;;;;5018629;28;20651;-69
2021/04/18 04:58:19;;;;;;;17.83;13.23;;;;;;;;;;4999670;28;20546;-70
2021/04/18 05:01:23;;;;;;;20.07;13.27;;;;;;;;;;5023009;28;20659;-69
2021/04/18 05:04:28;;;;;;;19.03;13.40;;;;;;;;;;4997547;28;20632;-70
2021/04/18 05:07:32;;;;;;;18.07;12.93;;;;;;;;;;5010096;28;20591;-69
2021/04/18 05:10:36;;;;;;;18.43;13.37;;;;;;;;;;5033820;28;20580;-69
2021/04/18 05:13:41;;;;;;;17.93;13.13;;;;;;;;;;4995700;28;21099;-70
2021/04/18 05:16:45;;;;;;;25.10;17.80;;;;;;;;;;4995370;28;20624;-70
2021/04/18 05:19:49;;;;;;;20.43;15.13;;;;;;;;;;4992033;28;20620;-70
2021/04/18 05:22:53;;;;;;;21.63;14.77;;;;;;;;;;5033725;28;20647;-70
2021/04/18 05:25:58;;;;;;;23.33;15.43;;;;;;;;;;5003641;28;20616;-69
2021/04/18 05:29:02;;;;;;;24.43;15.53;;;;;;;;;;5012408;28;20620;-69
2021/04/18 05:32:07;;;;;;;24.67;16.73;;;;;;;;;;5012808;28;20604;-70
2021/04/18 05:35:12;;;;;;;27.53;17.10;;;;;;;;;;5022125;28;20651;-70
2021/04/18 05:38:17;;;;;;;28.90;17.40;;;;;;;;;;5019015;28;20599;-70
2021/04/18 05:41:21;;;;;;;25.83;17.87;;;;;;;;;;5028209;28;20627;-70
2021/04/18 05:44:25;;;;;;;25.23;17.53;;;;;;;;;;4999332;28;21226;-70
2021/04/18 05:47:29;;;;;;;24.97;18.07;;;;;;;;;;5006155;28;20580;-70
2021/04/18 05:50:34;;;;;;;23.60;17.30;;;;;;;;;;5012500;28;21172;-70
2021/04/18 05:53:37;;;;;;;24.47;17.60;;;;;;;;;;5010482;28;20561;-69
2021/04/18 05:56:43;;;;;;;24.17;16.57;;;;;;;;;;5026243;28;20599;-70
2021/04/18 05:59:47;;;;;;;24.67;16.83;;;;;;;;;;5030302;28;20595;-70
2021/04/18 06:02:51;;;;;;;26.50;17.40;;;;;;;;;;5003986;28;20619;-70
2021/04/18 06:05:56;;;;;;;26.03;17.67;;;;;;;;;;5027412;28;20961;-69
2021/04/18 06:09:00;;;;;;;27.10;18.03;;;;;;;;;;5007188;28;20575;-69
2021/04/18 06:12:05;;;;;;;25.07;17.83;;;;;;;;;;5030726;28;20555;-69
2021/04/18 06:15:09;;;;;;;24.13;17.27;;;;;;;;;;4994313;28;20651;-69
2021/04/18 06:18:16;;;;;;;27.90;17.17;;;;;;;;;;5018461;28;20583;-69
2021/04/18 06:21:29;;;;;;;24.63;17.97;;;;;;;;;;5016220;28;20209;-69
2021/04/18 06:24:33;;;;;;;23.73;16.20;;;;;;;;;;5019731;28;20224;-70
2021/04/18 06:27:37;;;;;;;22.40;16.13;;;;;;;;;;5010347;28;20197;-69
2021/04/18 06:30:41;;;;;;;25.33;17.00;;;;;;;;;;5020507;28;20189;-69
2021/04/18 06:33:45;;;;;;;27.23;17.97;;;;;;;;;;5013723;28;20640;-69
2021/04/18 06:36:50;;;;;;;27.23;18.20;;;;;;;;;;5003753;28;20201;-70
2021/04/18 06:39:54;;;;;;;26.97;16.87;;;;;;;;;;5006672;28;20201;-69
2021/04/18 06:43:02;;;;;;;26.27;17.77;;;;;;;;;;5010227;28;20687;-70
2021/04/18 06:46:07;;;;;;;28.00;17.03;;;;;;;;;;5012235;28;20188;-69
2021/04/18 06:49:11;;;;;;;24.67;17.80;;;;;;;;;;5022555;28;20189;-70
2021/04/18 06:52:15;;;;;;;25.50;17.63;;;;;;;;;;5019411;28;20212;-70
2021/04/18 06:55:31;;;;;;;27.17;17.97;;;;;;;;;;5028198;28;20221;-70
2021/04/18 06:58:35;;;;;;;27.57;18.53;;;;;;;;;;5022753;28;20197;-70
2021/04/18 07:01:40;;;;;;;26.87;17.50;;;;;;;;;;5009928;28;20217;-70
2021/04/18 07:04:56;;;;;;;30.50;18.63;;;;;;;;;;5008966;28;20224;-70
2021/04/18 07:08:20;;;;;;;27.57;17.53;;;;;;;;;;5017376;28;20628;-70
2021/04/18 07:11:24;;;;;;;26.40;17.90;;;;;;;;;;5029825;28;20177;-70
2021/04/18 07:14:30;;;;;;;24.60;17.23;;;;;;;;;;5007335;28;20569;-70
2021/04/18 07:17:48;;;;;;;28.53;19.43;;;;;;;;;;4978017;28;20292;-70
2021/04/18 07:20:54;;;;;;;31.70;19.63;;;;;;;;;;4990302;28;20573;-71
2021/04/18 07:24:05;;;;;;;24.80;18.30;;;;;;;;;;5000799;28;20221;-70
2021/04/18 07:27:09;;;;;;;32.23;20.00;;;;;;;;;;5012509;28;20186;-70
2021/04/18 07:30:19;;;;;;;28.87;19.53;;;;;;;;;;5009728;28;20201;-70
2021/04/18 07:34:03;;;;;;;29.10;19.53;;;;;;;;;;5009707;28;20178;-70
2021/04/18 07:37:14;;;;;;;29.27;20.30;;;;;;;;;;5017578;28;20192;-69
2021/04/18 07:40:30;;;;;;;25.43;16.97;;;;;;;;;;5009334;28;20197;-69
2021/04/18 07:43:34;;;;;;;23.63;17.53;;;;;;;;;;5009486;28;20679;-70
2021/04/18 07:46:38;;;;;;;24.97;17.70;;;;;;;;;;4986368;28;20181;-70
2021/04/18 07:49:42;;;;;;;24.13;17.20;;;;;;;;;;4990237;28;20186;-70
2021/04/18 07:52:48;;;;;;;24.57;17.73;;;;;;;;;;5002159;28;20200;-69
2021/04/18 07:55:53;;;;;;;24.97;17.03;;;;;;;;;;5001831;28;20222;-70
2021/04/18 07:58:58;;;;;;;23.23;17.13;;;;;;;;;;4997660;28;20177;-70
2021/04/18 08:02:03;;;;;;;24.20;16.73;;;;;;;;;;5011175;28;20225;-69
2021/04/18 08:05:08;;;;;;;24.67;17.77;;;;;;;;;;5008345;28;20217;-70
2021/04/18 08:08:15;;;;;;;27.13;19.07;;;;;;;;;;5009450;28;20186;-72
2021/04/18 08:11:22;;;;;;;27.63;18.33;;;;;;;;;;5009587;28;20788;-71
2021/04/18 08:14:26;;;;;;;31.53;19.23;;;;;;;;;;5011401;28;20229;-71
2021/04/18 08:17:30;;;;;;;22.10;16.97;;;;;;;;;;5029044;28;20181;-72
2021/04/18 08:20:41;;;;;;;22.67;16.17;;;;;;;;;;5030407;28;20177;-72
2021/04/18 08:23:45;;;;;;;23.93;16.70;;;;;;;;;;4981171;28;20218;-71
2021/04/18 08:27:12;;;;;;;22.87;16.13;;;;;;;;;;5007962;28;20208;-71
2021/04/18 08:30:16;;;;;;;26.10;17.47;;;;;;;;;;4989626;28;20178;-71
2021/04/18 08:33:39;;;;;;;24.10;16.50;;;;;;;;;;5012821;28;20178;-72
2021/04/18 08:36:49;;;;;;;101.87;46.63;;;;;;;;;;4981284;28;20174;-74
2021/04/18 08:40:04;;;;;;;24.20;16.63;;;;;;;;;;4992066;28;20194;-74
2021/04/18 08:43:24;;;;;;;21.20;15.53;;;;;;;;;;5005896;28;20208;-74
2021/04/18 08:46:28;;;;;;;23.60;17.73;;;;;;;;;;5002593;28;20206;-73
2021/04/18 08:49:37;;;;;;;22.77;16.60;;;;;;;;;;5007900;28;20189;-73
2021/04/18 08:52:41;;;;;;;32.30;22.13;;;;;;;;;;5028972;28;20204;-73
2021/04/18 08:55:57;;;;;;;31.43;19.73;;;;;;;;;;5011146;28;20217;-73
2021/04/18 08:59:09;;;;;;;19.87;15.83;;;;;;;;;;5031583;28;20632;-73
2021/04/18 09:02:14;;;;;;;20.93;16.03;;;;;;;;;;5019703;28;20209;-74
2021/04/18 09:05:20;;;;;;;21.27;15.80;;;;;;;;;;5006675;28;20576;-74
2021/04/18 09:08:25;;;;;;;21.70;15.70;;;;;;;;;;5012315;28;20181;-74
2021/04/18 09:11:38;;;;;;;19.93;15.10;;;;;;;;;;5000157;28;20185;-74
2021/04/18 09:14:45;;;;;;;22.97;15.70;;;;;;;;;;5006272;28;20767;-74
2021/04/18 09:17:49;;;;;;;20.70;16.13;;;;;;;;;;5031018;28;20192;-74
2021/04/18 09:21:13;;;;;;;19.67;15.80;;;;;;;;;;5008727;28;20181;-73
2021/04/18 09:24:17;;;;;;;18.10;14.20;;;;;;;;;;5016841;28;20229;-74
2021/04/18 09:27:29;;;;;;;18.93;15.43;;;;;;;;;;4999940;28;20174;-74
2021/04/18 09:30:33;;;;;;;17.10;14.03;;;;;;;;;;5026626;28;20200;-73
2021/04/18 09:33:37;;;;;;;20.43;15.07;;;;;;;;;;5031743;28;20201;-74
2021/04/18 09:36:42;;;;;;;17.47;14.43;;;;;;;;;;5016758;28;20196;-75
2021/04/18 09:39:56;;;;;;;17.73;14.00;;;;;;;;;;5018853;28;20204;-75
2021/04/18 09:43:03;;;;;;;13.10;11.17;;;;;;;;;;5011727;28;20225;-75
2021/04/18 09:46:07;;;;;;;14.00;10.63;;;;;;;;;;5031883;28;20188;-76
2021/04/18 09:49:23;;;;;;;15.13;10.60;;;;;;;;;;5010349;28;20184;-75
2021/04/18 09:52:39;;;;;;;13.97;10.93;;;;;;;;;;5031914;28;20211;-76
2021/04/18 09:56:04;;;;;;;13.30;10.80;;;;;;;;;;5020095;28;20229;-76
2021/04/18 09:59:17;;;;;;;15.13;11.87;;;;;;;;;;5019873;28;20645;-75
2021/04/18 10:02:22;;;;;;;12.17;10.87;;;;;;;;;;5032437;28;20199;-75
2021/04/18 10:05:27;;;;;;;13.03;11.63;;;;;;;;;;5064427;22;20720;-73
2021/04/18 10:08:36;;;;;;;12.00;10.70;;;;;;;;;;5046900;28;20197;-72
2021/04/18 10:11:59;;;;;;;11.20;10.00;;;;;;;;;;5046011;28;20189;-73
2021/04/18 10:15:06;;;;;;;11.87;9.80;;;;;;;;;;5017098;28;20233;-73
2021/04/18 10:18:10;;;;;;;11.57;10.37;;;;;;;;;;5021741;28;20177;-73
2021/04/18 10:21:17;;;;;;;12.03;10.83;;;;;;;;;;5033389;28;20188;-73
2021/04/18 10:24:42;;;;;;;15.50;12.93;;;;;;;;;;5031393;28;20338;-73
2021/04/18 10:27:54;;;;;;;12.53;10.83;;;;;;;;;;5014030;28;20181;-73
2021/04/18 10:30:58;;;;;;;12.97;10.63;;;;;;;;;;4992271;28;20184;-73
2021/04/18 10:34:02;;;;;;;12.63;10.23;;;;;;;;;;5033532;28;20220;-73
2021/04/18 10:37:06;;;;;;;13.10;10.57;;;;;;;;;;5023556;28;20545;-73
2021/04/18 10:40:12;;;;;;;12.77;10.67;;;;;;;;;;5013242;28;20636;-73
2021/04/18 10:43:16;;;;;;;11.50;10.30;;;;;;;;;;5016604;28;20216;-73
2021/04/18 10:46:20;;;;;;;13.63;11.90;;;;;;;;;;5001788;28;20672;-73
2021/04/18 10:49:26;;;;;;;13.00;11.27;;;;;;;;;;5017212;28;20193;-73
2021/04/18 10:52:31;;;;;;;12.73;11.37;;;;;;;;;;5033034;28;20193;-73
2021/04/18 10:55:37;;;;;;;13.03;10.87;;;;;;;;;;5033136;28;20220;-73
2021/04/18 10:58:41;;;;;;;11.60;10.33;;;;;;;;;;5019402;28;20189;-73
2021/04/18 11:01:51;;;;;;;13.70;10.83;;;;;;;;;;5010048;28;20185;-72
2021/04/18 11:04:56;;;;;;;14.83;11.67;;;;;;;;;;5012695;28;20225;-73
2021/04/18 11:08:00;;;;;;;16.53;12.40;;;;;;;;;;5023715;28;20185;-72
2021/04/18 11:11:05;;;;;;;16.80;12.97;;;;;;;;;;5009641;28;20185;-74
2021/04/18 11:14:09;;;;;;;18.03;13.07;;;;;;;;;;5009835;28;20216;-74
2021/04/18 11:17:14;;;;;;;18.40;13.67;;;;;;;;;;5017261;28;20211;-74
2021/04/18 11:20:20;;;;;;;17.63;12.30;;;;;;;;;;4986661;28;20185;-74
2021/04/18 11:23:26;;;;;;;17.03;13.40;;;;;;;;;;5009429;28;20205;-74
2021/04/18 11:26:30;;;;;;;17.97;13.23;;;;;;;;;;5011694;28;20178;-74
2021/04/18 11:29:36;;;;;;;16.70;12.07;;;;;;;;;;5018536;28;20194;-74
2021/04/18 11:32:41;;;;;;;16.07;12.80;;;;;;;;;;5009903;28;20201;-74
2021/04/18 11:35:45;;;;;;;15.93;13.03;;;;;;;;;;4997344;28;20731;-75
2021/04/18 11:38:49;;;;;;;18.77;14.03;;;;;;;;;;5014777;28;20192;-75
2021/04/18 11:42:06;;;;;;;19.20;13.60;;;;;;;;;;5019037;28;20201;-75
2021/04/18 11:45:11;;;;;;;17.13;12.90;;;;;;;;;;5029300;28;20208;-74
2021/04/18 11:48:16;;;;;;;16.80;11.87;;;;;;;;;;5027552;28;20197;-75
2021/04/18 11:51:20;;;;;;;19.97;13.70;;;;;;;;;;5009580;28;20185;-74
2021/04/18 11:54:25;;;;;;;19.00;12.37;;;;;;;;;;5013346;28;20221;-75
2021/04/18 11:57:29;;;;;;;17.07;12.97;;;;;;;;;;4991221;28;20193;-74
2021/04/18 12:00:35;;;;;;;17.27;12.87;;;;;;;;;;5013131;28;20192;-74
2021/04/18 12:03:39;;;;;;;19.07;13.27;;;;;;;;;;5020506;28;20562;-74
2021/04/18 12:06:43;;;;;;;17.73;13.00;;;;;;;;;;5017857;28;20682;-73
2021/04/18 12:09:47;;;;;;;17.30;12.27;;;;;;;;;;5005970;28;20196;-73
2021/04/18 12:12:52;;;;;;;18.57;14.77;;;;;;;;;;5020440;28;20192;-73
2021/04/18 12:15:56;;;;;;;16.83;12.73;;;;;;;;;;5015445;28;20200;-73
2021/04/18 12:19:00;;;;;;;15.80;13.13;;;;;;;;;;5012773;28;20204;-73
2021/04/18 12:22:04;;;;;;;16.27;13.03;;;;;;;;;;5032479;28;20452;-73
2021/04/18 12:25:11;;;;;;;16.47;13.70;;;;;;;;;;5019232;28;20603;-73
2021/04/18 12:28:15;;;;;;;14.43;11.90;;;;;;;;;;5023566;28;20208;-73
2021/04/18 12:31:20;;;;;;;15.70;12.13;;;;;;;;;;5008419;28;20207;-72
2021/04/18 12:34:25;;;;;;;19.03;13.40;;;;;;;;;;5031866;28;20227;-74
2021/04/18 12:37:29;;;;;;;16.30;12.70;;;;;;;;;;5024689;28;20216;-74
2021/04/18 12:40:33;;;;;;;14.90;12.40;;;;;;;;;;5015678;28;20203;-74
2021/04/18 12:43:37;;;;;;;15.30;12.17;;;;;;;;;;4989037;28;20220;-74
2021/04/18 12:46:42;;;;;;;17.37;12.30;;;;;;;;;;5012041;28;20193;-74
2021/04/18 12:49:46;;;;;;;16.63;12.30;;;;;;;;;;5007865;28;20211;-73
2021/04/18 12:52:50;;;;;;;15.53;12.63;;;;;;;;;;5027825;28;20204;-75
2021/04/18 12:55:55;;;;;;;15.90;11.87;;;;;;;;;;5000276;28;20220;-73
2021/04/18 12:58:59;;;;;;;15.13;12.60;;;;;;;;;;5014138;28;20197;-73
2021/04/18 13:02:03;;;;;;;16.60;12.20;;;;;;;;;;5031343;28;20208;-73
2021/04/18 13:05:08;;;;;;;16.90;13.30;;;;;;;;;;5016217;28;20224;-73
2021/04/18 13:08:13;;;;;;;18.37;12.97;;;;;;;;;;5007638;28;20192;-74
2021/04/18 13:11:17;;;;;;;18.57;14.40;;;;;;;;;;5033594;28;20196;-74
2021/04/18 13:14:21;;;;;;;15.97;12.43;;;;;;;;;;5035182;28;20208;-75
2021/04/18 13:17:26;;;;;;;18.53;13.07;;;;;;;;;;5003414;28;20686;-73
2021/04/18 13:20:31;;;;;;;16.73;12.47;;;;;;;;;;5014576;28;20201;-74
2021/04/18 13:23:35;;;;;;;17.60;13.57;;;;;;;;;;5003083;28;20217;-75
2021/04/18 13:26:39;;;;;;;16.50;12.97;;;;;;;;;;5015327;28;20190;-74
2021/04/18 13:29:44;;;;;;;16.40;13.30;;;;;;;;;;5014799;28;20189;-74
2021/04/18 13:32:52;;;;;;;15.27;11.33;;;;;;;;;;5015470;28;20181;-74
2021/04/18 13:35:59;;;;;;;14.73;12.07;;;;;;;;;;5003090;28;20197;-74
2021/04/18 13:39:05;;;;;;;18.53;13.37;;;;;;;;;;5015423;28;20266;-75
2021/04/18 13:42:10;;;;;;;15.80;12.77;;;;;;;;;;5015030;28;20197;-75
2021/04/18 13:45:16;;;;;;;14.57;11.97;;;;;;;;;;5015123;28;20585;-74
2021/04/18 13:48:20;;;;;;;14.50;12.03;;;;;;;;;;5015163;28;20181;-73
2021/04/18 13:51:24;;;;;;;15.17;12.67;;;;;;;;;;5003003;28;20219;-74
2021/04/18 13:54:28;;;;;;;16.80;13.17;;;;;;;;;;5014983;28;20703;-74
2021/04/18 13:57:33;;;;;;;17.77;13.13;;;;;;;;;;4991575;28;20285;-75
2021/04/18 14:00:37;;;;;;;17.60;12.23;;;;;;;;;;5015135;28;20189;-75
2021/04/18 14:03:41;;;;;;;16.10;11.83;;;;;;;;;;5002372;28;20184;-75
2021/04/18 14:06:45;;;;;;;16.30;11.97;;;;;;;;;;5014581;28;20694;-74
2021/04/18 14:09:50;;;;;;;15.33;12.67;;;;;;;;;;5028806;28;20694;-76
2021/04/18 14:12:54;;;;;;;19.10;15.33;;;;;;;;;;5034159;28;20184;-75
2021/04/18 14:15:59;;;;;;;16.57;12.77;;;;;;;;;;5021441;28;20176;-75
2021/04/18 14:19:03;;;;;;;15.47;12.17;;;;;;;;;;5021906;28;20199;-76
2021/04/18 14:22:07;;;;;;;17.53;13.30;;;;;;;;;;5034338;28;20188;-75
2021/04/18 14:25:13;;;;;;;18.60;13.50;;;;;;;;;;5017311;28;20227;-76
2021/04/18 14:28:17;;;;;;;16.53;12.93;;;;;;;;;;5016684;28;20196;-76
2021/04/18 14:31:21;;;;;;;16.77;13.23;;;;;;;;;;5014359;28;20188;-76
2021/04/18 14:34:25;;;;;;;17.00;13.53;;;;;;;;;;4998656;28;20568;-76
2021/04/18 14:37:29;;;;;;;17.77;13.63;;;;;;;;;;5017027;28;20659;-76
2021/04/18 14:40:34;;;;;;;18.07;13.80;;;;;;;;;;5029167;28;20219;-76
2021/04/18 14:43:39;;;;;;;17.10;12.23;;;;;;;;;;5029584;28;20543;-76
2021/04/18 14:46:43;;;;;;;17.20;13.10;;;;;;;;;;5021217;28;20204;-77
2021/04/18 14:49:47;;;;;;;17.27;13.73;;;;;;;;;;5010029;28;20184;-77
2021/04/18 14:52:51;;;;;;;15.03;12.40;;;;;;;;;;5009826;28;20314;-76
2021/04/18 14:55:56;;;;;;;17.10;12.83;;;;;;;;;;5010884;28;20208;-76
2021/04/18 14:59:01;;;;;;;15.77;12.27;;;;;;;;;;5002891;28;20217;-77
2021/04/18 15:02:05;;;;;;;17.57;13.73;;;;;;;;;;5029480;28;20192;-76
2021/04/18 15:05:10;;;;;;;16.50;12.63;;;;;;;;;;5029228;28;20231;-76
2021/04/18 15:08:14;;;;;;;14.73;12.07;;;;;;;;;;5029223;28;20191;-77
2021/04/18 15:11:19;;;;;;;20.37;12.73;;;;;;;;;;5009608;28;20192;-76
2021/04/18 15:14:23;;;;;;;17.13;12.77;;;;;;;;;;5019161;28;20220;-77
2021/04/18 15:17:27;;;;;;;16.17;12.20;;;;;;;;;;5016096;28;20196;-78
2021/04/18 15:20:32;;;;;;;17.03;13.03;;;;;;;;;;5003173;28;20193;-78
2021/04/18 15:23:39;;;;;;;14.93;12.33;;;;;;;;;;5002984;28;20203;-78
2021/04/18 15:26:53;;;;;;;16.73;12.73;;;;;;;;;;5010770;28;20200;-78
2021/04/18 15:29:57;;;;;;;15.23;12.07;;;;;;;;;;4986593;28;20216;-78
2021/04/18 15:33:03;;;;;;;13.57;11.57;;;;;;;;;;4997440;28;20203;-77
2021/04/18 15:36:07;;;;;;;16.53;12.33;;;;;;;;;;5016193;28;20196;-77
2021/04/18 15:39:13;;;;;;;15.10;12.50;;;;;;;;;;5014538;28;20196;-72
2021/04/18 15:42:18;;;;;;;29.07;21.30;;;;;;;;;;5028914;28;20223;-72
2021/04/18 15:45:23;;;;;;;15.40;12.40;;;;;;;;;;5028091;28;20231;-72
2021/04/18 15:48:27;;;;;;;13.87;11.57;;;;;;;;;;5026940;28;20208;-72
2021/04/18 15:51:32;;;;;;;16.17;12.13;;;;;;;;;;4997715;28;20599;-72
2021/04/18 15:54:36;;;;;;;14.43;11.80;;;;;;;;;;5001636;28;20227;-72
2021/04/18 15:57:41;;;;;;;14.93;11.77;;;;;;;;;;5028925;28;20188;-72
2021/04/18 16:00:49;;;;;;;14.73;11.50;;;;;;;;;;5028638;28;20196;-72
2021/04/18 16:03:53;;;;;;;14.87;11.63;;;;;;;;;;5009320;28;20232;-70
2021/04/18 16:06:58;;;;;;;15.77;12.97;;;;;;;;;;5019347;28;20560;-70
2021/04/18 16:10:04;;;;;;;18.17;13.63;;;;;;;;;;5028294;28;20675;-71
2021/04/18 16:13:09;;;;;;;17.43;13.50;;;;;;;;;;5029287;28;20666;-70
2021/04/18 16:16:14;;;;;;;18.10;12.20;;;;;;;;;;5020069;28;20212;-72
2021/04/18 16:19:23;;;;;;;14.80;11.50;;;;;;;;;;5001730;28;20563;-70
2021/04/18 16:22:28;;;;;;;20.83;12.10;;;;;;;;;;5016087;28;20208;-70
2021/04/18 16:25:33;;;;;;;16.70;12.73;;;;;;;;;;5022019;28;20228;-70
2021/04/18 16:28:37;;;;;;;15.63;12.07;;;;;;;;;;5009287;28;20193;-70
2021/04/18 16:31:41;;;;;;;15.07;11.80;;;;;;;;;;5009407;28;20180;-70
2021/04/18 16:34:47;;;;;;;16.97;14.07;;;;;;;;;;5015326;28;20229;-71
2021/04/18 16:37:58;;;;;;;14.77;11.90;;;;;;;;;;5027102;28;20193;-71
2021/04/18 16:41:03;;;;;;;14.90;10.63;;;;;;;;;;5015168;28;20205;-72
2021/04/18 16:44:07;;;;;;;13.37;11.43;;;;;;;;;;5020140;28;20239;-72
2021/04/18 16:47:12;;;;;;;13.37;10.57;;;;;;;;;;5032202;28;20177;-71
2021/04/18 16:50:16;;;;;;;12.73;10.37;;;;;;;;;;5031870;28;20185;-71
2021/04/18 16:53:21;;;;;;;12.50;10.87;;;;;;;;;;5019992;28;20524;-71
2021/04/18 16:56:28;;;;;;;19.37;13.10;;;;;;;;;;5008554;28;20181;-71
2021/04/18 16:59:33;;;;;;;15.90;11.97;;;;;;;;;;5026798;28;20198;-71
2021/04/18 17:02:38;;;;;;;16.60;12.17;;;;;;;;;;5012322;28;20197;-71
2021/04/18 17:05:42;;;;;;;16.23;12.27;;;;;;;;;;5012034;28;20258;-71
2021/04/18 17:08:46;;;;;;;17.37;12.90;;;;;;;;;;5011688;28;20193;-72
2021/04/18 17:11:50;;;;;;;20.13;13.20;;;;;;;;;;5022325;28;20204;-71
2021/04/18 17:14:55;;;;;;;14.97;12.43;;;;;;;;;;5011981;28;20747;-72
2021/04/18 17:17:59;;;;;;;15.67;12.20;;;;;;;;;;5012140;28;20177;-71
2021/04/18 17:21:04;;;;;;;18.27;13.87;;;;;;;;;;5018487;28;20197;-71
2021/04/18 17:24:09;;;;;;;16.27;12.03;;;;;;;;;;5028737;28;20220;-71
2021/04/18 17:27:17;;;;;;;15.70;12.57;;;;;;;;;;5027473;28;20190;-71
2021/04/18 17:30:23;;;;;;;15.63;12.27;;;;;;;;;;5016172;28;20180;-72
2021/04/18 17:33:28;;;;;;;31.53;20.43;;;;;;;;;;5030465;28;20765;-72
2021/04/18 17:36:35;;;;;;;18.93;14.20;;;;;;;;;;5031406;28;20201;-72
2021/04/18 17:39:40;;;;;;;17.73;13.10;;;;;;;;;;5029839;28;20192;-71
2021/04/18 17:42:45;;;;;;;16.30;11.83;;;;;;;;;;5031431;28;20185;-71
2021/04/18 17:45:49;;;;;;;14.73;11.97;;;;;;;;;;5018486;28;20228;-71
2021/04/18 17:48:53;;;;;;;14.63;11.27;;;;;;;;;;5017010;28;20190;-71
2021/04/18 17:51:58;;;;;;;15.60;12.30;;;;;;;;;;5028685;28;20547;-71
2021/04/18 17:55:04;;;;;;;16.63;12.43;;;;;;;;;;5020167;28;20213;-70
2021/04/18 17:58:15;;;;;;;17.20;12.30;;;;;;;;;;5010816;28;20360;-71
2021/04/18 18:01:19;;;;;;;16.10;11.30;;;;;;;;;;5016567;28;20189;-71
2021/04/18 18:04:24;;;;;;;17.33;12.50;;;;;;;;;;4998957;28;20225;-71
2021/04/18 18:07:28;;;;;;;15.40;11.37;;;;;;;;;;5011157;28;20174;-71